Terminal Aerodrome Forecast
Issued by NWS

Home | Current Version | Previous Version | Graphics & Text | Print | Product List | Glossary On
Versions: 1 2 3 4 5 6 7 8 9 10 11 12 13 14 15 16 17 18 19 20 21
571
FTUS43 KBIS 221614 AAB
TAFJMS
TAF AMD
KJMS 221614Z 2216/2312 15019G28KT P6SM VCSH FEW030 OVC060
      TEMPO 2216/2218 2SM -SN
     FM221800 15021G30KT P6SM OVC040
     FM230300 16014KT P6SM BKN140
     FM230900 15011KT P6SM SCT110=

USA.gov is the U.S. government's official web portal to all federal, state and local government web resources and services.